createdAt,value
2018-04-15T17:17:57.174Z,19.40
2018-04-15T17:20:25.408Z,19.40
2018-04-15T17:22:53.652Z,19.30
2018-04-15T17:25:22.017Z,19.20
2018-04-15T17:27:50.282Z,19.20
2018-04-15T17:30:18.527Z,19.10
2018-04-15T17:32:46.792Z,19.10
2018-04-15T17:35:15.803Z,19.00
2018-04-15T17:37:44.937Z,19.00
2018-04-15T17:40:13.169Z,18.90
2018-04-15T17:42:42.209Z,18.80
2018-04-15T17:45:10.502Z,18.80
2018-04-15T17:47:38.768Z,18.80
2018-04-15T17:50:06.988Z,18.80
2018-04-15T17:52:35.236Z,18.80
2018-04-15T17:55:03.486Z,18.80
2018-04-15T17:57:31.734Z,18.80
2018-04-15T18:00:00.002Z,18.70
2018-04-15T18:02:28.274Z,18.60
2018-04-15T18:04:56.520Z,18.50
2018-04-15T18:07:24.748Z,18.50
2018-04-15T18:09:53.025Z,18.60
2018-04-15T18:12:21.259Z,18.50
2018-04-15T18:14:49.544Z,18.40
2018-04-15T18:17:17.796Z,18.50
2018-04-15T18:19:46.809Z,18.30
2018-04-15T18:22:16.406Z,18.10
2018-04-15T18:24:44.647Z,18.10
2018-04-15T18:27:13.401Z,18.10
2018-04-15T18:29:41.667Z,18.00
2018-04-15T18:32:10.677Z,18.00
2018-04-15T18:34:38.945Z,18.00
2018-04-15T18:37:07.952Z,18.10
2018-04-15T18:39:36.239Z,18.10
2018-04-15T18:42:04.490Z,18.10
2018-04-15T18:44:32.745Z,18.00
2018-04-15T18:47:00.975Z,18.10
2018-04-15T18:49:29.231Z,18.10
2018-04-15T18:51:58.250Z,18.00
2018-04-15T18:54:27.287Z,17.90
2018-04-15T18:56:55.529Z,17.90
2018-04-15T18:59:23.765Z,17.90
2018-04-15T19:01:51.979Z,17.90
2018-04-15T19:04:21.013Z,17.90
2018-04-15T19:06:49.281Z,17.90
2018-04-15T19:09:17.795Z,17.80
2018-04-15T19:11:46.052Z,17.80
2018-04-15T19:14:14.313Z,17.60
2018-04-15T19:16:44.205Z,17.10
2018-04-15T19:19:12.484Z,17.00
2018-04-15T19:21:40.716Z,17.10
2018-04-15T19:24:09.071Z,17.00
2018-04-15T19:26:37.339Z,16.90
2018-04-15T19:29:06.844Z,16.80
2018-04-15T19:31:35.845Z,16.70
2018-04-15T19:34:04.847Z,16.70
2018-04-15T19:36:33.102Z,16.80
2018-04-15T19:39:01.322Z,16.80
2018-04-15T19:41:30.346Z,16.50
2018-04-15T19:43:58.588Z,16.40
2018-04-15T19:46:26.852Z,16.40
2018-04-15T19:48:55.100Z,16.50
2018-04-15T19:51:23.362Z,16.70
2018-04-15T19:53:52.357Z,16.80
2018-04-15T19:56:20.616Z,16.80
2018-04-15T19:58:48.881Z,16.80
2018-04-15T20:01:17.154Z,16.80
2018-04-15T20:03:45.471Z,16.80
2018-04-15T20:06:13.720Z,16.90
2018-04-15T20:08:41.964Z,16.90
2018-04-15T20:11:10.754Z,16.80
2018-04-15T20:13:38.941Z,16.70
2018-04-15T20:16:07.341Z,16.60
2018-04-15T20:18:37.121Z,16.50
2018-04-15T20:21:05.470Z,16.50
2018-04-15T20:23:34.515Z,16.40
2018-04-15T20:26:02.817Z,16.40
2018-04-15T20:28:31.064Z,16.20
2018-04-15T20:30:59.359Z,16.20
2018-04-15T20:33:27.598Z,15.90
2018-04-15T20:35:56.658Z,15.80
2018-04-15T20:38:24.924Z,15.80
2018-04-15T20:40:54.106Z,16.00
2018-04-15T20:43:23.719Z,16.10
2018-04-15T20:45:52.761Z,16.30
2018-04-15T20:48:21.012Z,16.30
2018-04-15T20:50:50.157Z,16.20
2018-04-15T20:53:18.430Z,16.30
2018-04-15T20:55:46.667Z,16.00
2018-04-15T20:58:14.954Z,15.90
2018-04-15T21:00:43.185Z,15.60
2018-04-15T21:03:11.460Z,15.50
2018-04-15T21:05:40.305Z,15.40
2018-04-15T21:08:08.548Z,15.40
2018-04-15T21:10:37.522Z,15.30
2018-04-15T21:13:05.809Z,15.30
2018-04-15T21:15:34.070Z,15.20
2018-04-15T21:18:02.366Z,15.10
2018-04-15T21:20:30.600Z,15.00
2018-04-15T21:22:59.637Z,14.90
2018-04-15T21:25:27.894Z,14.80
2018-04-15T21:27:56.135Z,15.00
2018-04-15T21:30:24.414Z,15.00
2018-04-15T21:32:52.676Z,14.90
2018-04-15T21:35:20.928Z,14.80
2018-04-15T21:37:49.163Z,14.60
2018-04-15T21:40:17.421Z,14.60
2018-04-15T21:42:48.308Z,14.50
2018-04-15T21:45:17.313Z,14.60
2018-04-15T21:47:46.875Z,14.60
2018-04-15T21:50:15.136Z,14.60
2018-04-15T21:52:43.661Z,14.60
2018-04-15T21:55:11.924Z,14.60
2018-04-15T21:57:41.004Z,14.50
2018-04-15T22:00:09.227Z,14.60
2018-04-15T22:02:38.275Z,14.50
2018-04-15T22:05:06.526Z,14.40
2018-04-15T22:07:35.515Z,14.30
2018-04-15T22:10:04.547Z,14.30
2018-04-15T22:12:32.834Z,14.30
2018-04-15T22:15:01.113Z,14.30
2018-04-15T22:17:30.069Z,14.20
2018-04-15T22:19:59.093Z,14.20
2018-04-15T22:22:27.344Z,14.20
2018-04-15T22:24:55.708Z,14.20
2018-04-15T22:27:24.770Z,14.20
2018-04-15T22:29:53.066Z,14.20
2018-04-15T22:32:21.301Z,14.30
2018-04-15T22:34:50.328Z,14.10
2018-04-15T22:37:18.566Z,14.10
2018-04-15T22:39:47.127Z,14.10
2018-04-15T22:42:15.460Z,14.10
2018-04-15T22:44:43.708Z,14.30
2018-04-15T22:47:11.947Z,14.70
2018-04-15T22:49:43.746Z,14.80
2018-04-15T22:52:11.977Z,14.90
2018-04-15T22:54:40.249Z,14.90
2018-04-15T22:57:13.775Z,14.90
2018-04-15T22:59:42.044Z,14.90
2018-04-15T23:02:10.292Z,14.70
2018-04-15T23:04:38.538Z,14.50
2018-04-15T23:07:06.774Z,14.30
2018-04-15T23:09:35.642Z,14.20
2018-04-15T23:12:03.867Z,14.10
2018-04-15T23:14:32.123Z,14.00
2018-04-15T23:17:01.135Z,14.00
2018-04-15T23:19:29.388Z,14.00
2018-04-15T23:21:58.381Z,14.20
2018-04-15T23:24:26.641Z,14.20
2018-04-15T23:26:54.864Z,14.10
2018-04-15T23:29:23.831Z,14.10
2018-04-15T23:31:52.073Z,14.10
2018-04-15T23:34:20.308Z,14.10
2018-04-15T23:36:49.335Z,14.00
2018-04-15T23:39:17.562Z,14.00
2018-04-15T23:41:45.816Z,14.20
2018-04-15T23:44:14.042Z,14.30
2018-04-15T23:46:43.078Z,14.60
2018-04-15T23:49:11.321Z,14.60
2018-04-15T23:51:39.996Z,14.80
2018-04-15T23:54:09.132Z,14.80
2018-04-15T23:56:38.152Z,14.70
2018-04-15T23:59:06.392Z,14.70
